createdAt,value
2019-03-30T00:02:10.396Z,31.50
2019-03-30T00:05:14.518Z,32.00
2019-03-30T00:08:18.714Z,27.00
2019-03-30T00:11:22.842Z,31.67
2019-03-30T00:14:27.354Z,29.40
2019-03-30T00:17:31.479Z,28.70
2019-03-30T00:20:36.203Z,30.53
2019-03-30T00:23:40.647Z,28.73
2019-03-30T00:26:44.965Z,26.73
2019-03-30T00:29:49.383Z,27.43
2019-03-30T00:32:53.794Z,27.63
2019-03-30T00:35:58.517Z,26.20
2019-03-30T00:39:03.188Z,23.13
2019-03-30T00:42:07.302Z,24.43
2019-03-30T00:45:11.608Z,23.60
2019-03-30T00:48:15.721Z,27.70
2019-03-30T00:51:20.170Z,26.13
2019-03-30T00:54:24.303Z,23.97
2019-03-30T00:57:28.507Z,25.47
2019-03-30T01:00:33.090Z,24.30
2019-03-30T01:03:37.286Z,25.80
2019-03-30T01:06:41.411Z,22.97
2019-03-30T01:09:45.597Z,21.97
2019-03-30T01:12:49.791Z,17.63
2019-03-30T01:15:53.915Z,22.53
2019-03-30T01:18:58.112Z,18.97
2019-03-30T01:22:02.230Z,21.53
2019-03-30T01:25:07.381Z,21.30
2019-03-30T01:28:11.674Z,20.93
2019-03-30T01:31:16.223Z,23.03
2019-03-30T01:34:21.045Z,20.47
2019-03-30T01:37:25.300Z,22.97
2019-03-30T01:40:29.788Z,19.33
2019-03-30T01:43:33.914Z,19.67
2019-03-30T01:46:38.034Z,17.37
2019-03-30T01:49:42.534Z,19.07
2019-03-30T01:52:46.725Z,18.23
2019-03-30T01:55:50.915Z,20.63
2019-03-30T01:58:55.139Z,18.53
2019-03-30T02:01:59.338Z,18.47
2019-03-30T02:05:03.533Z,18.63
2019-03-30T02:08:07.739Z,17.33
2019-03-30T02:11:11.918Z,15.27
2019-03-30T02:14:16.410Z,14.27
2019-03-30T02:17:20.534Z,14.53
2019-03-30T02:20:36.995Z,15.33
2019-03-30T02:23:41.189Z,14.93
2019-03-30T02:26:46.030Z,14.50
2019-03-30T02:29:50.218Z,17.70
2019-03-30T02:32:54.412Z,17.77
2019-03-30T02:35:58.528Z,15.33
2019-03-30T02:39:02.652Z,13.57
2019-03-30T02:42:07.137Z,13.77
2019-03-30T02:45:11.534Z,14.50
2019-03-30T02:48:16.039Z,13.60
2019-03-30T02:51:20.526Z,13.17
2019-03-30T02:54:24.673Z,14.17
2019-03-30T02:57:29.006Z,14.07
2019-03-30T03:00:33.491Z,16.23
2019-03-30T03:03:38.017Z,14.57
2019-03-30T03:06:42.286Z,14.00
2019-03-30T03:09:46.406Z,14.23
2019-03-30T03:12:50.889Z,13.13
2019-03-30T03:15:55.259Z,13.47
2019-03-30T03:19:00.014Z,11.30
2019-03-30T03:22:04.480Z,14.47
2019-03-30T03:25:09.190Z,13.17
2019-03-30T03:28:13.633Z,12.97
2019-03-30T03:31:17.885Z,11.40
2019-03-30T03:34:22.127Z,13.20
2019-03-30T03:37:43.364Z,11.27
2019-03-30T03:40:32.416Z,13.77
2019-03-30T03:43:36.854Z,10.47
2019-03-30T03:46:41.046Z,11.33
2019-03-30T03:49:45.231Z,15.07
2019-03-30T03:52:49.836Z,11.60
2019-03-30T03:55:55.093Z,10.90
2019-03-30T03:58:59.874Z,12.40
2019-03-30T04:02:04.119Z,11.43
2019-03-30T04:05:09.662Z,11.90
2019-03-30T04:08:14.371Z,10.17
2019-03-30T04:11:19.151Z,12.03
2019-03-30T04:14:26.309Z,10.70
2019-03-30T04:17:30.980Z,10.80
2019-03-30T04:20:35.172Z,11.93
2019-03-30T04:23:39.274Z,9.90
2019-03-30T04:26:43.406Z,10.90
2019-03-30T04:29:47.812Z,10.00
2019-03-30T04:32:52.006Z,11.43
2019-03-30T04:35:56.726Z,11.77
2019-03-30T04:39:00.900Z,10.30
2019-03-30T04:42:05.798Z,10.00
2019-03-30T04:45:10.156Z,9.60
2019-03-30T04:48:14.864Z,11.33
2019-03-30T04:51:19.053Z,9.63
2019-03-30T04:54:23.236Z,9.57
2019-03-30T04:57:27.758Z,10.03
2019-03-30T05:00:31.863Z,13.13
2019-03-30T05:03:36.371Z,12.00
2019-03-30T05:06:40.481Z,9.87
2019-03-30T05:09:44.937Z,8.87
2019-03-30T05:12:49.049Z,8.13
2019-03-30T05:15:53.468Z,10.17
2019-03-30T05:18:57.669Z,8.87
2019-03-30T05:22:12.023Z,9.97
2019-03-30T05:25:08.797Z,9.10
2019-03-30T05:28:12.999Z,9.83
2019-03-30T05:31:17.118Z,10.80
2019-03-30T05:34:21.565Z,7.83
2019-03-30T05:37:25.757Z,11.47
2019-03-30T05:40:29.963Z,7.57
2019-03-30T05:43:34.081Z,6.13
2019-03-30T05:46:38.604Z,7.53
2019-03-30T05:49:43.123Z,9.27
2019-03-30T05:52:47.288Z,7.33
2019-03-30T05:55:51.998Z,6.63
2019-03-30T05:58:56.194Z,7.53
2019-03-30T06:02:00.407Z,6.40
2019-03-30T06:05:05.004Z,6.40
2019-03-30T06:08:09.418Z,7.43
2019-03-30T06:11:13.916Z,6.30
2019-03-30T06:14:18.109Z,12.20
2019-03-30T06:17:22.230Z,191.93
2019-03-30T06:20:26.337Z,33.73
2019-03-30T06:23:30.513Z,45.13
2019-03-30T06:26:34.686Z,41.37
2019-03-30T06:29:39.136Z,41.10
2019-03-30T06:32:43.613Z,75.67
2019-03-30T06:35:48.043Z,33.07
2019-03-30T06:38:52.483Z,75.03
2019-03-30T06:41:56.583Z,66.00
2019-03-30T06:45:01.030Z,75.20
2019-03-30T06:48:05.513Z,60.87
2019-03-30T06:51:09.692Z,63.33
2019-03-30T06:54:14.916Z,56.43
2019-03-30T06:57:19.051Z,47.63
2019-03-30T07:00:33.490Z,47.80
2019-03-30T07:03:37.889Z,45.07
2019-03-30T07:06:42.344Z,46.80
2019-03-30T07:09:49.915Z,41.57
2019-03-30T07:12:55.378Z,40.87
2019-03-30T07:16:00.494Z,41.77
2019-03-30T07:19:04.933Z,33.63
2019-03-30T07:22:09.573Z,28.47
2019-03-30T07:25:13.954Z,32.13
2019-03-30T07:28:18.180Z,34.27
2019-03-30T07:31:22.661Z,28.30
2019-03-30T07:34:27.416Z,26.23
2019-03-30T07:37:31.601Z,24.77
2019-03-30T07:40:35.699Z,27.93
2019-03-30T07:43:40.764Z,24.23
2019-03-30T07:46:45.119Z,24.73
2019-03-30T07:49:49.619Z,21.10
2019-03-30T07:52:54.195Z,22.13
2019-03-30T07:56:08.339Z,21.20
2019-03-30T07:59:05.167Z,21.57
2019-03-30T08:02:09.614Z,20.43
2019-03-30T08:05:14.356Z,20.23
2019-03-30T08:08:19.707Z,18.67
2019-03-30T08:11:24.424Z,35.77
2019-03-30T08:14:31.125Z,33.83
2019-03-30T08:17:35.521Z,31.03
2019-03-30T08:20:39.975Z,28.30
2019-03-30T08:23:44.415Z,30.70
2019-03-30T08:26:48.794Z,28.47
2019-03-30T08:29:53.216Z,28.00
2019-03-30T08:32:57.399Z,31.17
2019-03-30T08:36:01.576Z,28.03
2019-03-30T08:39:07.513Z,21.43
2019-03-30T08:42:11.685Z,21.67
2019-03-30T08:45:16.192Z,19.13
2019-03-30T08:48:20.381Z,21.17
2019-03-30T08:51:24.551Z,17.87
2019-03-30T08:54:28.813Z,20.00
2019-03-30T08:57:33.267Z,37.40
2019-03-30T09:00:39.164Z,23.85
2019-03-30T09:03:43.357Z,37.08
2019-03-30T09:06:47.531Z,28.10
2019-03-30T09:09:51.707Z,33.92
2019-03-30T09:12:55.887Z,18.45
2019-03-30T09:16:00.248Z,15.55
2019-03-30T09:19:04.421Z,59.18
2019-03-30T09:22:08.806Z,126.67
2019-03-30T09:25:13.004Z,36.40
2019-03-30T09:28:17.210Z,105.25
2019-03-30T09:31:21.387Z,72.60
2019-03-30T09:34:25.826Z,33.20
2019-03-30T09:37:29.918Z,22.58
2019-03-30T09:40:34.050Z,23.10
2019-03-30T09:43:38.175Z,19.57
2019-03-30T09:46:42.694Z,16.52
2019-03-30T09:49:47.186Z,25.25
2019-03-30T09:52:51.298Z,154.23
2019-03-30T09:55:55.427Z,198.43
2019-03-30T09:58:59.604Z,116.95
2019-03-30T10:02:04.056Z,157.15
2019-03-30T10:05:08.244Z,250.10
2019-03-30T10:08:12.693Z,231.87
2019-03-30T10:11:16.870Z,246.27
2019-03-30T10:14:21.062Z,246.83
2019-03-30T10:17:25.239Z,235.50
2019-03-30T10:20:29.731Z,230.30
2019-03-30T10:23:34.608Z,231.13
2019-03-30T10:26:39.005Z,223.63
2019-03-30T10:29:43.206Z,213.87
2019-03-30T10:32:47.671Z,207.97
2019-03-30T10:35:52.082Z,210.40
2019-03-30T10:38:56.261Z,193.67
2019-03-30T10:42:00.763Z,193.63
2019-03-30T10:45:05.701Z,193.83
2019-03-30T10:48:10.131Z,187.13
2019-03-30T10:51:14.264Z,182.37
2019-03-30T10:54:18.357Z,177.30
2019-03-30T10:57:22.545Z,176.70
2019-03-30T11:00:37.138Z,172.40
2019-03-30T11:03:41.311Z,169.77
2019-03-30T11:06:45.732Z,163.30
2019-03-30T11:09:49.905Z,159.97
2019-03-30T11:12:54.338Z,156.37
2019-03-30T11:15:58.452Z,159.53
2019-03-30T11:19:02.814Z,150.83
2019-03-30T11:22:07.041Z,147.83
2019-03-30T11:25:11.191Z,146.63
2019-03-30T11:28:15.629Z,138.10
2019-03-30T11:31:20.072Z,140.47
2019-03-30T11:34:24.505Z,134.80
2019-03-30T11:37:28.691Z,133.97
2019-03-30T11:40:32.938Z,132.50
2019-03-30T11:43:37.126Z,133.87
2019-03-30T11:46:41.240Z,127.80
2019-03-30T11:49:45.673Z,128.57
2019-03-30T11:52:49.880Z,121.00
2019-03-30T11:55:54.236Z,121.37
2019-03-30T11:58:58.420Z,119.00
2019-03-30T12:02:02.610Z,113.40
2019-03-30T12:05:06.884Z,110.30
2019-03-30T12:08:11.114Z,110.47
2019-03-30T12:11:15.577Z,111.10
2019-03-30T12:14:19.686Z,104.83
2019-03-30T12:17:23.863Z,106.77
2019-03-30T12:20:28.036Z,102.70
2019-03-30T12:23:32.473Z,100.90
2019-03-30T12:26:36.899Z,98.13
2019-03-30T12:29:44.295Z,97.80
2019-03-30T12:32:46.902Z,95.53
2019-03-30T12:35:51.120Z,97.33
2019-03-30T12:38:55.612Z,95.03
2019-03-30T12:42:00.033Z,90.23
2019-03-30T12:45:04.875Z,86.90
2019-03-30T12:48:09.118Z,91.83
2019-03-30T12:51:13.213Z,83.97
2019-03-30T12:54:17.652Z,83.00
2019-03-30T12:57:22.066Z,81.70
2019-03-30T13:00:26.254Z,86.03
2019-03-30T13:03:30.431Z,82.63
2019-03-30T13:06:34.861Z,80.50
2019-03-30T13:09:39.314Z,77.77
2019-03-30T13:12:43.726Z,74.87
2019-03-30T13:15:47.914Z,73.33
2019-03-30T13:18:52.014Z,74.90
2019-03-30T13:21:56.533Z,71.77
2019-03-30T13:25:00.959Z,72.53
2019-03-30T13:28:05.662Z,67.97
2019-03-30T13:31:10.197Z,67.43
2019-03-30T13:34:14.376Z,66.23
2019-03-30T13:37:19.016Z,67.53
2019-03-30T13:40:23.404Z,64.77
2019-03-30T13:43:27.582Z,63.77
2019-03-30T13:46:32.036Z,64.77
2019-03-30T13:49:36.417Z,63.23
2019-03-30T13:52:40.589Z,63.33
2019-03-30T13:55:44.782Z,61.70
2019-03-30T13:58:48.881Z,59.43
2019-03-30T14:01:53.060Z,60.27
2019-03-30T14:04:57.167Z,56.60
2019-03-30T14:08:01.368Z,56.93
2019-03-30T14:11:05.542Z,56.07
2019-03-30T14:14:09.709Z,54.03
2019-03-30T14:17:13.892Z,54.30
2019-03-30T14:20:18.082Z,54.67
2019-03-30T14:23:22.543Z,52.43
2019-03-30T14:26:31.545Z,52.73
2019-03-30T14:29:32.928Z,51.00
2019-03-30T14:32:37.098Z,50.37
2019-03-30T14:35:43.775Z,50.23
2019-03-30T14:38:47.662Z,51.53
2019-03-30T14:41:52.156Z,48.37
2019-03-30T14:44:56.259Z,47.90
2019-03-30T14:48:00.437Z,47.93
2019-03-30T14:51:04.860Z,45.20
2019-03-30T14:54:09.342Z,47.07
2019-03-30T14:57:13.440Z,45.97
2019-03-30T15:00:17.847Z,44.47
2019-03-30T15:03:22.423Z,42.67
2019-03-30T15:06:26.610Z,42.13
2019-03-30T15:09:30.784Z,42.90
2019-03-30T15:12:34.958Z,42.17
2019-03-30T15:15:39.615Z,40.53
2019-03-30T15:18:43.787Z,40.63
2019-03-30T15:21:48.609Z,39.57
2019-03-30T15:24:52.780Z,39.50
2019-03-30T15:27:57.304Z,40.57
2019-03-30T15:31:01.535Z,37.53
2019-03-30T15:34:05.710Z,39.90
2019-03-30T15:37:09.887Z,37.47
2019-03-30T15:40:14.451Z,37.83
2019-03-30T15:43:18.891Z,36.10
2019-03-30T15:46:23.695Z,35.20
2019-03-30T15:49:28.218Z,34.90
2019-03-30T15:52:32.400Z,35.60
2019-03-30T15:55:36.581Z,36.33
2019-03-30T15:58:40.720Z,34.57
2019-03-30T16:01:45.186Z,32.43
2019-03-30T16:04:49.819Z,33.00
2019-03-30T16:07:54.054Z,34.83
2019-03-30T16:10:58.392Z,34.07
2019-03-30T16:14:02.502Z,32.20
2019-03-30T16:17:06.681Z,31.93
2019-03-30T16:20:11.337Z,30.10
2019-03-30T16:23:15.866Z,30.70
2019-03-30T16:26:20.392Z,30.47
2019-03-30T16:29:24.663Z,30.13
2019-03-30T16:32:28.888Z,27.93
2019-03-30T16:35:33.372Z,28.93
2019-03-30T16:38:38.107Z,29.30
2019-03-30T16:41:42.631Z,29.50
2019-03-30T16:44:47.119Z,26.37
2019-03-30T16:47:51.359Z,28.43
2019-03-30T16:50:55.532Z,27.00
2019-03-30T16:53:59.719Z,26.13
2019-03-30T16:57:04.111Z,25.97
2019-03-30T17:00:08.801Z,24.93
2019-03-30T17:03:13.161Z,25.43
2019-03-30T17:06:17.841Z,27.17
2019-03-30T17:09:22.024Z,26.50
2019-03-30T17:12:26.128Z,24.60
2019-03-30T17:15:31.138Z,24.83
2019-03-30T17:18:35.318Z,25.00
2019-03-30T17:21:39.498Z,23.43
2019-03-30T17:24:43.957Z,23.00
2019-03-30T17:27:57.985Z,20.00
2019-03-30T17:30:54.331Z,23.40
2019-03-30T17:33:58.426Z,21.70
2019-03-30T17:37:02.604Z,24.07
2019-03-30T17:40:07.563Z,21.70
2019-03-30T17:43:11.658Z,21.70
2019-03-30T17:46:16.099Z,20.03
2019-03-30T17:49:20.517Z,19.70
2019-03-30T17:52:24.982Z,20.77
2019-03-30T17:55:34.030Z,20.60
2019-03-30T17:58:34.985Z,18.27
2019-03-30T18:01:39.175Z,19.73
2019-03-30T18:04:43.799Z,20.67
2019-03-30T18:07:47.898Z,20.30
2019-03-30T18:10:52.416Z,18.93
2019-03-30T18:13:56.677Z,18.67
2019-03-30T18:17:00.863Z,18.13
2019-03-30T18:20:05.493Z,19.17
2019-03-30T18:23:09.882Z,19.37
2019-03-30T18:26:14.062Z,18.57
2019-03-30T18:29:18.279Z,18.13
2019-03-30T18:32:22.453Z,18.47
2019-03-30T18:35:28.327Z,16.20
2019-03-30T18:38:36.528Z,17.97
2019-03-30T18:41:39.892Z,17.27
2019-03-30T18:44:44.849Z,16.93
2019-03-30T18:47:49.414Z,19.20
2019-03-30T18:50:53.519Z,18.47
2019-03-30T18:53:57.682Z,16.60
2019-03-30T18:57:02.165Z,17.07
2019-03-30T19:00:07.090Z,18.03
2019-03-30T19:03:11.275Z,15.93
2019-03-30T19:06:15.666Z,16.60
2019-03-30T19:09:20.080Z,16.73
2019-03-30T19:12:24.281Z,15.77
2019-03-30T19:15:28.789Z,17.27
2019-03-30T19:18:32.967Z,15.63
2019-03-30T19:21:37.157Z,16.37
2019-03-30T19:24:41.251Z,15.03
2019-03-30T19:27:45.427Z,15.70
2019-03-30T19:30:50.154Z,16.87
2019-03-30T19:33:54.330Z,15.70
2019-03-30T19:36:58.505Z,16.83
2019-03-30T19:40:02.777Z,16.23
2019-03-30T19:43:06.888Z,14.43
2019-03-30T19:46:10.988Z,14.73
2019-03-30T19:49:15.409Z,16.40
2019-03-30T19:52:19.916Z,14.83
2019-03-30T19:55:24.334Z,15.93
2019-03-30T19:58:28.779Z,15.40
2019-03-30T20:01:33.307Z,14.97
2019-03-30T20:04:37.849Z,14.67
2019-03-30T20:07:42.108Z,14.67
2019-03-30T20:10:46.279Z,15.77
2019-03-30T20:13:50.381Z,15.53
2019-03-30T20:16:54.902Z,16.23
2019-03-30T20:19:59.081Z,15.43
2019-03-30T20:23:03.254Z,15.23
2019-03-30T20:26:07.668Z,14.73
2019-03-30T20:29:24.696Z,17.47
2019-03-30T20:32:18.004Z,14.63
2019-03-30T20:35:22.476Z,14.53
2019-03-30T20:38:26.919Z,15.30
2019-03-30T20:41:31.310Z,14.83
2019-03-30T20:44:35.489Z,15.17
2019-03-30T20:47:39.662Z,13.60
2019-03-30T20:50:43.839Z,14.83
2019-03-30T20:53:48.019Z,12.93
2019-03-30T20:56:52.117Z,16.83
2019-03-30T20:59:56.567Z,13.00
2019-03-30T21:03:01.083Z,13.13
2019-03-30T21:06:05.613Z,13.83
2019-03-30T21:09:10.387Z,13.37
2019-03-30T21:12:15.125Z,13.17
2019-03-30T21:15:19.302Z,12.63
2019-03-30T21:18:23.806Z,12.63
2019-03-30T21:21:28.263Z,12.03
2019-03-30T21:24:32.764Z,14.33
2019-03-30T21:27:36.870Z,12.17
2019-03-30T21:30:40.985Z,12.37
2019-03-30T21:33:45.145Z,12.73
2019-03-30T21:36:49.326Z,12.03
2019-03-30T21:39:53.421Z,12.67
2019-03-30T21:42:58.359Z,11.03
2019-03-30T21:46:02.533Z,10.83
2019-03-30T21:49:06.622Z,12.57
2019-03-30T21:52:10.723Z,11.33
2019-03-30T21:55:15.315Z,13.60
2019-03-30T21:58:19.496Z,14.83
2019-03-30T22:01:23.603Z,12.87
2019-03-30T22:04:27.691Z,13.40
2019-03-30T22:07:32.288Z,16.07
2019-03-30T22:10:36.550Z,12.50
2019-03-30T22:13:40.653Z,13.50
2019-03-30T22:16:45.162Z,13.33
2019-03-30T22:19:49.903Z,14.63
2019-03-30T22:22:54.010Z,18.03
2019-03-30T22:25:58.178Z,12.73
2019-03-30T22:29:02.372Z,13.20
2019-03-30T22:32:06.779Z,14.27
2019-03-30T22:35:11.243Z,15.93
2019-03-30T22:38:15.748Z,13.50
2019-03-30T22:41:19.843Z,14.20
2019-03-30T22:44:23.949Z,13.70
2019-03-30T22:47:28.414Z,15.97
2019-03-30T22:50:32.523Z,15.07
2019-03-30T22:53:36.634Z,13.30
2019-03-30T22:56:41.088Z,13.20
2019-03-30T22:59:45.276Z,14.40
2019-03-30T23:02:49.479Z,13.20
2019-03-30T23:05:53.568Z,16.10
2019-03-30T23:08:57.740Z,14.07
2019-03-30T23:12:01.830Z,17.23
2019-03-30T23:15:06.320Z,14.80
2019-03-30T23:18:10.801Z,13.63
2019-03-30T23:21:14.899Z,16.77
2019-03-30T23:24:19.072Z,13.63
2019-03-30T23:27:23.248Z,16.67
2019-03-30T23:30:27.367Z,14.00
2019-03-30T23:33:31.787Z,15.67
2019-03-30T23:36:35.888Z,15.73
2019-03-30T23:39:40.063Z,15.93
2019-03-30T23:42:44.541Z,14.40
2019-03-30T23:45:49.050Z,15.03
2019-03-30T23:48:53.151Z,16.83
2019-03-30T23:51:57.570Z,15.93
2019-03-30T23:55:01.762Z,19.60
2019-03-30T23:58:05.868Z,17.80
